createdAt,value
2022-09-24T00:00:23.660Z,76.07
2022-09-24T00:02:45.121Z,75.88
2022-09-24T00:05:06.983Z,76.07
2022-09-24T00:07:28.409Z,76.96
2022-09-24T00:09:49.827Z,76.23
2022-09-24T00:12:13.167Z,76.17
2022-09-24T00:14:34.727Z,75.80
2022-09-24T00:16:56.141Z,75.88
2022-09-24T00:19:17.626Z,75.64
2022-09-24T00:21:40.248Z,76.04
2022-09-24T00:24:04.887Z,76.35
2022-09-24T00:26:45.207Z,76.28
2022-09-24T00:29:08.866Z,76.44
2022-09-24T00:31:31.171Z,78.25
2022-09-24T00:33:53.470Z,77.33
2022-09-24T00:36:15.635Z,76.89
2022-09-24T00:38:37.100Z,76.63
2022-09-24T00:40:59.748Z,78.49
2022-09-24T00:43:23.743Z,79.88
2022-09-24T00:45:45.164Z,78.23
2022-09-24T00:48:08.457Z,78.73
2022-09-24T00:50:34.984Z,77.71
2022-09-24T00:53:01.696Z,76.93
2022-09-24T00:55:24.627Z,77.16
2022-09-24T00:57:48.696Z,77.93
2022-09-24T01:00:11.056Z,77.78
2022-09-24T01:02:35.434Z,78.14
2022-09-24T01:04:57.403Z,77.62
2022-09-24T01:07:18.827Z,78.04
2022-09-24T01:09:40.380Z,77.60
2022-09-24T01:12:28.517Z,77.22
2022-09-24T01:15:06.911Z,77.54
2022-09-24T01:17:40.178Z,79.29
2022-09-24T01:20:33.050Z,79.91
2022-09-24T01:23:17.116Z,78.29
2022-09-24T01:26:01.305Z,77.44
2022-09-24T01:28:38.094Z,79.71
2022-09-24T01:31:08.683Z,79.47
2022-09-24T01:33:34.049Z,79.47
2022-09-24T01:36:00.674Z,79.29
2022-09-24T01:38:28.707Z,78.59
2022-09-24T01:40:51.962Z,78.54
2022-09-24T01:43:15.996Z,78.33
2022-09-24T01:45:39.445Z,78.20
2022-09-24T01:48:01.855Z,78.06
2022-09-24T01:50:25.086Z,80.14
2022-09-24T01:52:55.950Z,79.68
2022-09-24T01:55:21.733Z,80.09
2022-09-24T01:57:48.759Z,79.43
2022-09-24T02:00:21.841Z,78.55
2022-09-24T02:02:53.383Z,80.58
2022-09-24T02:05:21.974Z,83.13
2022-09-24T02:08:05.019Z,80.84
2022-09-24T02:10:30.649Z,80.00
2022-09-24T02:13:01.655Z,79.65
2022-09-24T02:15:33.058Z,79.84
2022-09-24T02:17:58.018Z,82.14
2022-09-24T02:20:21.925Z,83.11
2022-09-24T02:22:44.468Z,82.33
2022-09-24T02:25:10.477Z,81.54
2022-09-24T02:27:31.995Z,80.90
2022-09-24T02:29:53.427Z,80.91
2022-09-24T02:32:19.866Z,81.39
2022-09-24T02:34:50.014Z,81.37
2022-09-24T02:37:13.122Z,81.51
2022-09-24T02:39:35.029Z,81.32
2022-09-24T02:41:58.209Z,80.94
2022-09-24T02:44:20.493Z,82.64
2022-09-24T02:46:42.971Z,82.36
2022-09-24T02:49:04.526Z,82.50
2022-09-24T02:51:26.450Z,82.35
2022-09-24T02:53:47.892Z,82.01
2022-09-24T02:56:09.421Z,82.22
2022-09-24T02:58:30.964Z,81.83
2022-09-24T03:00:53.671Z,81.99
2022-09-24T03:03:15.277Z,82.29
2022-09-24T03:05:36.783Z,81.35
2022-09-24T03:07:58.848Z,81.27
2022-09-24T03:10:20.317Z,80.99
2022-09-24T03:12:43.699Z,80.88
2022-09-24T03:15:05.685Z,80.59
2022-09-24T03:17:28.362Z,80.60
2022-09-24T03:19:49.838Z,83.49
2022-09-24T03:22:11.241Z,82.95
2022-09-24T03:24:32.683Z,83.30
2022-09-24T03:26:54.168Z,82.75
2022-09-24T03:29:15.610Z,82.18
2022-09-24T03:31:37.116Z,81.85
2022-09-24T03:33:59.317Z,81.50
2022-09-24T03:36:23.176Z,81.44
2022-09-24T03:38:46.177Z,81.67
2022-09-24T03:41:08.909Z,82.93
2022-09-24T03:43:31.366Z,83.12
2022-09-24T03:45:53.462Z,82.53
2022-09-24T03:48:16.202Z,83.70
2022-09-24T03:50:38.389Z,82.86
2022-09-24T03:52:59.810Z,82.13
2022-09-24T03:55:21.225Z,81.97
2022-09-24T03:57:42.670Z,81.93
2022-09-24T04:00:04.875Z,81.74
2022-09-24T04:02:26.391Z,82.00
2022-09-24T04:04:47.937Z,82.75
2022-09-24T04:07:09.378Z,82.23
2022-09-24T04:09:31.021Z,82.28
2022-09-24T04:11:53.236Z,83.45
2022-09-24T04:14:15.333Z,82.47
2022-09-24T04:16:36.809Z,82.33
2022-09-24T04:18:58.254Z,82.25
2022-09-24T04:21:19.694Z,82.24
2022-09-24T04:23:41.125Z,82.21
2022-09-24T04:26:02.591Z,83.20
2022-09-24T04:28:25.260Z,82.52
2022-09-24T04:30:46.669Z,83.65
2022-09-24T04:33:08.514Z,84.47
2022-09-24T04:35:32.135Z,83.30
2022-09-24T04:37:53.706Z,82.74
2022-09-24T04:40:16.257Z,82.37
2022-09-24T04:42:39.252Z,83.79
2022-09-24T04:45:01.060Z,84.20
2022-09-24T04:47:24.300Z,83.27
2022-09-24T04:49:45.900Z,82.75
2022-09-24T04:52:07.337Z,82.48
2022-09-24T04:54:29.668Z,82.03
2022-09-24T04:56:51.094Z,82.37
2022-09-24T04:59:12.493Z,82.04
2022-09-24T05:01:34.197Z,82.54
2022-09-24T05:03:56.166Z,82.49
2022-09-24T05:06:17.579Z,82.74
2022-09-24T05:08:39.027Z,82.22
2022-09-24T05:11:02.377Z,81.96
2022-09-24T05:13:23.877Z,81.76
2022-09-24T05:15:45.355Z,81.67
2022-09-24T05:18:06.833Z,82.23
2022-09-24T05:20:28.455Z,81.32
2022-09-24T05:22:50.696Z,80.88
2022-09-24T05:25:13.522Z,80.87
2022-09-24T05:27:35.885Z,80.59
2022-09-24T05:29:57.303Z,80.94
2022-09-24T05:32:20.158Z,80.92
2022-09-24T05:34:43.289Z,81.88
2022-09-24T05:37:05.067Z,82.72
2022-09-24T05:39:30.117Z,82.54
2022-09-24T05:41:56.291Z,81.83
2022-09-24T05:44:20.736Z,82.47
2022-09-24T05:46:42.237Z,81.98
2022-09-24T05:49:03.747Z,81.44
2022-09-24T05:51:25.521Z,80.94
2022-09-24T05:53:47.047Z,81.08
2022-09-24T05:56:10.295Z,81.50
2022-09-24T05:58:32.086Z,82.09
2022-09-24T06:00:53.642Z,81.37
2022-09-24T06:03:17.076Z,80.78
2022-09-24T06:05:38.611Z,80.63
2022-09-24T06:08:00.171Z,81.62
2022-09-24T06:10:21.665Z,80.91
2022-09-24T06:12:43.135Z,80.83
2022-09-24T06:15:04.969Z,81.18
2022-09-24T06:17:26.838Z,80.71
2022-09-24T06:19:48.351Z,80.89
2022-09-24T06:22:09.837Z,81.24
2022-09-24T06:24:31.275Z,80.79
2022-09-24T06:26:52.706Z,80.81
2022-09-24T06:29:15.142Z,80.47
2022-09-24T06:31:36.670Z,80.41
2022-09-24T06:33:58.144Z,80.42
2022-09-24T06:36:19.587Z,80.31
2022-09-24T06:38:41.274Z,80.32
2022-09-24T06:41:05.241Z,80.20
2022-09-24T06:43:26.932Z,80.25
2022-09-24T06:45:48.501Z,79.73
2022-09-24T06:48:14.928Z,79.89
2022-09-24T06:50:40.695Z,79.66
2022-09-24T06:53:05.420Z,79.91
2022-09-24T06:55:27.387Z,80.51
2022-09-24T06:57:49.105Z,79.78
2022-09-24T07:00:11.375Z,79.89
2022-09-24T07:02:32.897Z,80.13
2022-09-24T07:04:54.362Z,80.62
2022-09-24T07:07:32.833Z,80.88
2022-09-24T07:09:54.434Z,80.99
2022-09-24T07:12:15.864Z,81.44
2022-09-24T07:14:37.278Z,83.92
2022-09-24T07:16:58.691Z,82.70
2022-09-24T07:19:20.109Z,81.82
2022-09-24T07:21:41.578Z,81.86
2022-09-24T07:24:03.232Z,81.45
2022-09-24T07:26:24.738Z,81.18
2022-09-24T07:28:46.174Z,80.66
2022-09-24T07:31:08.760Z,80.42
2022-09-24T07:33:31.699Z,80.06
2022-09-24T07:35:53.140Z,80.79
2022-09-24T07:38:15.591Z,81.08
2022-09-24T07:40:37.091Z,81.46
2022-09-24T07:43:00.065Z,82.17
2022-09-24T07:45:23.291Z,81.52
2022-09-24T07:47:44.752Z,81.52
2022-09-24T07:50:06.355Z,80.93
2022-09-24T07:52:27.780Z,80.96
2022-09-24T07:54:49.836Z,80.75
2022-09-24T07:57:15.180Z,81.09
2022-09-24T07:59:36.603Z,80.29
2022-09-24T08:01:59.154Z,80.64
2022-09-24T08:04:20.795Z,80.44
2022-09-24T08:06:47.218Z,80.42
2022-09-24T08:09:09.371Z,79.33
2022-09-24T08:11:31.211Z,80.53
2022-09-24T08:13:52.625Z,80.04
2022-09-24T08:16:16.409Z,79.03
2022-09-24T08:18:37.881Z,78.44
2022-09-24T08:21:04.633Z,78.07
2022-09-24T08:23:26.080Z,77.76
2022-09-24T08:25:47.943Z,77.04
2022-09-24T08:28:12.124Z,77.63
2022-09-24T08:30:34.787Z,76.84
2022-09-24T08:32:56.235Z,76.86
2022-09-24T08:35:17.699Z,75.68
2022-09-24T08:37:39.179Z,75.67
2022-09-24T08:40:01.183Z,74.05
2022-09-24T08:42:44.933Z,73.54
2022-09-24T08:45:27.389Z,73.58
2022-09-24T08:48:10.052Z,73.08
2022-09-24T08:50:34.976Z,73.72
2022-09-24T08:53:06.738Z,74.41
2022-09-24T08:55:36.232Z,73.03
2022-09-24T08:58:17.472Z,73.58
2022-09-24T09:00:58.954Z,73.10
2022-09-24T09:03:40.587Z,72.76
2022-09-24T09:06:12.391Z,69.39
2022-09-24T09:09:06.320Z,70.45
2022-09-24T09:11:32.659Z,69.58
2022-09-24T09:14:03.982Z,66.96
2022-09-24T09:16:29.582Z,65.61
2022-09-24T09:18:55.896Z,68.64
2022-09-24T09:21:36.947Z,67.87
2022-09-24T09:24:01.182Z,65.59
2022-09-24T09:26:23.018Z,65.84
2022-09-24T09:28:46.259Z,66.96
2022-09-24T09:31:32.347Z,65.67
2022-09-24T09:34:12.098Z,64.99
2022-09-24T09:36:47.961Z,64.94
2022-09-24T09:39:33.153Z,63.41
2022-09-24T09:42:04.819Z,62.87
2022-09-24T09:44:30.453Z,62.98
2022-09-24T09:46:58.610Z,61.86
2022-09-24T09:49:20.660Z,60.07
2022-09-24T09:51:44.192Z,58.88
2022-09-24T09:54:05.808Z,60.01
2022-09-24T09:56:44.468Z,61.22
2022-09-24T09:59:16.565Z,59.72
2022-09-24T10:01:41.416Z,59.28
2022-09-24T10:04:04.659Z,57.98
2022-09-24T10:06:29.093Z,55.38
2022-09-24T10:08:50.597Z,55.64
2022-09-24T10:11:15.920Z,53.83
2022-09-24T10:13:37.350Z,53.69
2022-09-24T10:16:01.997Z,52.27
2022-09-24T10:18:29.612Z,50.51
2022-09-24T10:20:51.921Z,50.00
2022-09-24T10:23:21.074Z,49.97
2022-09-24T10:25:51.515Z,50.37
2022-09-24T10:28:38.503Z,50.16
2022-09-24T10:31:05.027Z,49.06
2022-09-24T10:33:35.328Z,48.78
2022-09-24T10:36:13.896Z,48.65
2022-09-24T10:38:35.346Z,47.70
2022-09-24T10:40:57.096Z,48.02
2022-09-24T10:43:21.329Z,46.33
2022-09-24T10:46:08.771Z,46.69
2022-09-24T10:48:39.213Z,46.69
2022-09-24T10:51:06.065Z,46.50
2022-09-24T10:53:53.383Z,44.04
2022-09-24T10:56:40.927Z,44.16
2022-09-24T10:59:34.820Z,43.79
2022-09-24T11:02:20.325Z,44.23
2022-09-24T11:04:58.719Z,44.51
2022-09-24T11:07:28.984Z,43.66
2022-09-24T11:09:56.274Z,43.71
2022-09-24T11:12:45.293Z,42.05
2022-09-24T11:15:25.803Z,41.64
2022-09-24T11:18:16.156Z,41.35
2022-09-24T11:20:39.502Z,41.74
2022-09-24T11:23:31.080Z,41.29
2022-09-24T11:26:11.960Z,40.95
2022-09-24T11:28:50.682Z,40.43
2022-09-24T11:31:30.706Z,41.38
2022-09-24T11:34:04.252Z,40.40
2022-09-24T11:36:50.562Z,39.19
2022-09-24T11:39:26.669Z,39.29
2022-09-24T11:42:32.782Z,39.37
2022-09-24T11:44:56.919Z,39.18
2022-09-24T11:47:45.134Z,38.46
2022-09-24T11:50:20.085Z,38.75
2022-09-24T11:52:48.011Z,38.31
2022-09-24T11:55:23.699Z,38.58
2022-09-24T11:57:53.169Z,37.89
2022-09-24T12:00:20.237Z,38.35
2022-09-24T12:02:48.675Z,37.09
2022-09-24T12:05:23.239Z,36.95
2022-09-24T12:07:58.584Z,38.08
2022-09-24T12:10:32.342Z,38.17
2022-09-24T12:13:07.034Z,37.94
2022-09-24T12:15:39.850Z,38.10
2022-09-24T12:18:08.947Z,37.73
2022-09-24T12:20:32.741Z,37.47
2022-09-24T12:23:09.401Z,37.58
2022-09-24T12:25:46.314Z,37.30
2022-09-24T12:28:38.072Z,37.36
2022-09-24T12:31:23.533Z,37.85
2022-09-24T12:33:55.345Z,38.67
2022-09-24T12:36:29.198Z,38.27
2022-09-24T12:38:57.002Z,38.69
2022-09-24T12:41:27.495Z,36.99
2022-09-24T12:43:51.877Z,37.63
2022-09-24T12:46:42.914Z,37.25
2022-09-24T12:49:04.768Z,37.55
2022-09-24T12:51:35.776Z,37.66
2022-09-24T12:54:00.509Z,39.25
2022-09-24T12:56:30.752Z,38.70
2022-09-24T12:58:53.338Z,39.44
2022-09-24T13:01:20.697Z,39.87
2022-09-24T13:03:46.967Z,41.26
2022-09-24T13:06:34.757Z,40.84
2022-09-24T13:08:56.210Z,41.19
2022-09-24T13:11:44.033Z,40.60
2022-09-24T13:14:18.267Z,39.74
2022-09-24T13:16:41.969Z,39.44
2022-09-24T13:19:06.079Z,40.26
2022-09-24T13:21:29.821Z,39.41
2022-09-24T13:23:51.997Z,40.44
2022-09-24T13:26:30.076Z,39.85
2022-09-24T13:28:56.525Z,40.11
2022-09-24T13:31:22.815Z,39.83
2022-09-24T13:33:48.109Z,38.62
2022-09-24T13:36:17.481Z,38.96
2022-09-24T13:38:52.936Z,38.12
2022-09-24T13:41:46.888Z,39.02
2022-09-24T13:44:42.380Z,40.00
2022-09-24T13:47:27.549Z,38.79
2022-09-24T13:49:51.626Z,39.19
2022-09-24T13:52:35.577Z,38.06
2022-09-24T13:55:00.769Z,38.55
2022-09-24T13:57:22.300Z,38.81
2022-09-24T13:59:43.711Z,39.45
2022-09-24T14:02:32.660Z,38.52
2022-09-24T14:04:58.192Z,39.18
2022-09-24T14:07:21.292Z,38.88
2022-09-24T14:09:44.420Z,38.66
2022-09-24T14:12:22.462Z,39.02
2022-09-24T14:14:47.334Z,38.91
2022-09-24T14:17:12.951Z,38.08
2022-09-24T14:19:34.675Z,38.71
2022-09-24T14:21:58.597Z,37.07
2022-09-24T14:24:36.986Z,36.40
2022-09-24T14:27:07.164Z,37.00
2022-09-24T14:29:43.932Z,37.73
2022-09-24T14:32:22.957Z,37.45
2022-09-24T14:34:44.436Z,37.39
2022-09-24T14:37:23.206Z,37.21
2022-09-24T14:39:48.223Z,37.26
2022-09-24T14:42:17.435Z,36.10
2022-09-24T14:44:44.452Z,36.20
2022-09-24T14:47:25.422Z,35.75
2022-09-24T14:49:46.856Z,36.57
2022-09-24T14:52:26.878Z,36.47
2022-09-24T14:54:48.367Z,34.28
2022-09-24T14:57:12.110Z,35.00
2022-09-24T14:59:37.548Z,34.29
2022-09-24T15:02:15.829Z,34.66
2022-09-24T15:04:37.988Z,35.05
2022-09-24T15:06:59.441Z,33.43
2022-09-24T15:09:28.362Z,33.52
2022-09-24T15:11:49.863Z,34.54
2022-09-24T15:14:18.100Z,34.09
2022-09-24T15:16:39.598Z,35.25
2022-09-24T15:19:06.801Z,35.88
2022-09-24T15:21:28.308Z,36.20
2022-09-24T15:23:49.729Z,35.80
2022-09-24T15:26:11.289Z,36.26
2022-09-24T15:28:32.843Z,35.56
2022-09-24T15:30:54.446Z,36.84
2022-09-24T15:33:17.573Z,36.39
2022-09-24T15:35:40.873Z,36.51
2022-09-24T15:38:02.454Z,36.98
2022-09-24T15:40:25.481Z,37.20
2022-09-24T15:42:47.143Z,37.46
2022-09-24T15:45:17.078Z,37.91
2022-09-24T15:47:38.497Z,37.93
2022-09-24T15:49:59.939Z,37.81
2022-09-24T15:52:27.782Z,38.26
2022-09-24T15:54:50.867Z,39.00
2022-09-24T15:57:12.830Z,39.65
2022-09-24T15:59:34.253Z,39.65
2022-09-24T16:02:01.121Z,39.63
2022-09-24T16:04:22.600Z,40.68
2022-09-24T16:06:44.138Z,40.54
2022-09-24T16:09:05.640Z,40.53
2022-09-24T16:11:27.464Z,41.10
2022-09-24T16:13:50.384Z,41.86
2022-09-24T16:16:12.064Z,42.54
2022-09-24T16:18:33.794Z,42.79
2022-09-24T16:20:56.231Z,42.53
2022-09-24T16:23:18.151Z,43.03
2022-09-24T16:25:40.214Z,43.51
2022-09-24T16:28:01.866Z,44.51
2022-09-24T16:30:23.355Z,46.89
2022-09-24T16:32:44.859Z,47.49
2022-09-24T16:35:06.720Z,48.24
2022-09-24T16:37:28.234Z,47.64
2022-09-24T16:39:49.712Z,46.99
2022-09-24T16:42:11.135Z,46.87
2022-09-24T16:44:32.553Z,46.80
2022-09-24T16:46:54.116Z,48.13
2022-09-24T16:49:15.586Z,49.14
2022-09-24T16:51:37.947Z,48.80
2022-09-24T16:53:59.403Z,49.02
2022-09-24T16:56:20.869Z,48.67
2022-09-24T16:58:43.751Z,49.50
2022-09-24T17:01:06.741Z,49.15
2022-09-24T17:03:28.237Z,49.16
2022-09-24T17:05:49.653Z,49.18
2022-09-24T17:08:11.065Z,49.46
2022-09-24T17:10:32.503Z,49.66
2022-09-24T17:12:53.956Z,49.95
2022-09-24T17:15:20.691Z,50.26
2022-09-24T17:17:49.410Z,50.75
2022-09-24T17:20:11.560Z,50.76
2022-09-24T17:22:32.998Z,51.38
2022-09-24T17:24:54.473Z,51.79
2022-09-24T17:27:15.883Z,53.42
2022-09-24T17:29:37.350Z,53.65
2022-09-24T17:31:59.382Z,53.48
2022-09-24T17:34:20.813Z,53.15
2022-09-24T17:36:42.682Z,53.71
2022-09-24T17:39:05.793Z,54.47
2022-09-24T17:41:29.026Z,57.30
2022-09-24T17:43:51.541Z,56.12
2022-09-24T17:46:21.754Z,55.54
2022-09-24T17:48:45.393Z,55.74
2022-09-24T17:51:10.518Z,56.20
2022-09-24T17:53:34.280Z,57.45
2022-09-24T17:55:55.708Z,58.68
2022-09-24T17:58:18.615Z,60.33
2022-09-24T18:00:40.044Z,59.49
2022-09-24T18:03:01.572Z,59.30
2022-09-24T18:05:23.098Z,60.38
2022-09-24T18:07:45.302Z,58.40
2022-09-24T18:10:07.562Z,58.23
2022-09-24T18:12:29.110Z,58.38
2022-09-24T18:14:50.563Z,58.17
2022-09-24T18:17:11.973Z,59.31
2022-09-24T18:19:33.398Z,58.84
2022-09-24T18:21:56.130Z,58.84
2022-09-24T18:24:17.895Z,58.80
2022-09-24T18:26:40.433Z,58.68
2022-09-24T18:29:06.074Z,58.52
2022-09-24T18:31:29.755Z,58.92
2022-09-24T18:33:52.982Z,60.51
2022-09-24T18:36:17.807Z,59.97
2022-09-24T18:38:39.550Z,60.45
2022-09-24T18:41:06.214Z,62.14
2022-09-24T18:43:28.419Z,62.54
2022-09-24T18:45:49.915Z,62.13
2022-09-24T18:48:11.308Z,62.92
2022-09-24T18:50:32.748Z,64.20
2022-09-24T18:52:54.166Z,65.44
2022-09-24T18:55:15.629Z,68.90
2022-09-24T18:57:37.834Z,67.22
2022-09-24T18:59:59.321Z,65.91
2022-09-24T19:02:25.234Z,65.74
2022-09-24T19:04:46.936Z,66.42
2022-09-24T19:07:09.028Z,66.47
2022-09-24T19:09:30.513Z,67.13
2022-09-24T19:11:51.944Z,66.84
2022-09-24T19:14:15.072Z,66.64
2022-09-24T19:16:36.509Z,68.83
2022-09-24T19:18:59.481Z,70.61
2022-09-24T19:21:25.539Z,71.86
2022-09-24T19:23:49.735Z,71.32
2022-09-24T19:26:13.215Z,70.72
2022-09-24T19:28:36.380Z,70.41
2022-09-24T19:30:58.003Z,69.86
2022-09-24T19:33:19.501Z,69.29
2022-09-24T19:35:41.227Z,68.87
2022-09-24T19:38:02.784Z,68.64
2022-09-24T19:40:24.316Z,68.55
2022-09-24T19:42:47.066Z,68.91
2022-09-24T19:45:10.016Z,68.17
2022-09-24T19:47:34.518Z,68.42
2022-09-24T19:49:55.960Z,68.94
2022-09-24T19:52:17.392Z,68.74
2022-09-24T19:54:38.833Z,68.29
2022-09-24T19:57:00.348Z,68.75
2022-09-24T19:59:21.772Z,68.41
2022-09-24T20:01:44.639Z,68.16
2022-09-24T20:04:07.507Z,68.68
2022-09-24T20:06:31.315Z,69.73
2022-09-24T20:08:53.136Z,72.39
2022-09-24T20:11:19.353Z,71.37
2022-09-24T20:13:46.251Z,71.05
2022-09-24T20:16:08.286Z,71.22
2022-09-24T20:18:31.345Z,73.59
2022-09-24T20:20:55.745Z,73.37
2022-09-24T20:23:17.428Z,73.45
2022-09-24T20:25:57.466Z,72.71
2022-09-24T20:28:19.047Z,72.50
2022-09-24T20:30:40.836Z,72.33
2022-09-24T20:33:02.340Z,75.32
2022-09-24T20:35:23.765Z,74.10
2022-09-24T20:37:47.575Z,73.11
2022-09-24T20:40:09.996Z,74.52
2022-09-24T20:42:31.512Z,73.74
2022-09-24T20:44:53.491Z,73.35
2022-09-24T20:47:15.403Z,73.10
2022-09-24T20:49:37.160Z,72.88
2022-09-24T20:51:58.707Z,72.42
2022-09-24T20:54:21.282Z,73.50
2022-09-24T20:56:43.427Z,75.69
2022-09-24T20:59:04.902Z,75.98
2022-09-24T21:01:26.369Z,74.81
2022-09-24T21:03:50.066Z,75.57
2022-09-24T21:06:13.149Z,74.76
2022-09-24T21:08:40.381Z,74.90
2022-09-24T21:11:06.966Z,75.47
2022-09-24T21:13:28.542Z,77.31
2022-09-24T21:16:01.748Z,77.86
2022-09-24T21:18:28.232Z,79.01
2022-09-24T21:20:54.699Z,77.38
2022-09-24T21:23:16.128Z,77.37
2022-09-24T21:25:53.996Z,76.62
2022-09-24T21:28:16.081Z,76.08
2022-09-24T21:30:37.660Z,76.30
2022-09-24T21:32:59.219Z,75.81
2022-09-24T21:35:20.838Z,75.38
2022-09-24T21:37:42.306Z,75.11
2022-09-24T21:40:03.915Z,74.87
2022-09-24T21:42:26.937Z,74.82
2022-09-24T21:44:48.358Z,75.07
2022-09-24T21:47:09.798Z,77.84
2022-09-24T21:49:33.570Z,78.21
2022-09-24T21:51:56.942Z,77.91
2022-09-24T21:54:18.533Z,76.95
2022-09-24T21:56:40.024Z,77.82
2022-09-24T21:59:22.413Z,78.34
2022-09-24T22:01:44.035Z,77.28
2022-09-24T22:04:08.324Z,76.75
2022-09-24T22:06:31.408Z,77.16
2022-09-24T22:08:56.088Z,76.80
2022-09-24T22:11:17.993Z,76.07
2022-09-24T22:13:40.319Z,76.04
2022-09-24T22:16:01.939Z,76.79
2022-09-24T22:18:24.274Z,76.36
2022-09-24T22:20:45.721Z,75.88
2022-09-24T22:23:07.126Z,75.87
2022-09-24T22:25:28.550Z,75.59
2022-09-24T22:27:49.955Z,75.96
2022-09-24T22:30:11.778Z,79.35
2022-09-24T22:32:33.239Z,81.20
2022-09-24T22:35:13.225Z,80.61
2022-09-24T22:37:34.694Z,79.17
2022-09-24T22:39:56.218Z,78.62
2022-09-24T22:42:17.640Z,78.27
2022-09-24T22:44:39.045Z,78.37
2022-09-24T22:47:00.493Z,78.01
2022-09-24T22:49:23.301Z,81.61
2022-09-24T22:51:44.757Z,81.87
2022-09-24T22:54:07.286Z,81.08
2022-09-24T22:56:30.046Z,80.35
2022-09-24T22:58:56.312Z,79.56
2022-09-24T23:01:23.558Z,79.28
2022-09-24T23:03:45.455Z,79.16
2022-09-24T23:06:08.229Z,78.92
2022-09-24T23:08:33.326Z,78.90
2022-09-24T23:10:54.867Z,78.73
2022-09-24T23:13:16.262Z,80.78
2022-09-24T23:15:37.711Z,81.12
2022-09-24T23:17:59.109Z,81.56
2022-09-24T23:20:21.964Z,81.21
2022-09-24T23:22:43.386Z,80.96
2022-09-24T23:25:05.215Z,80.93
2022-09-24T23:27:27.009Z,82.80
2022-09-24T23:29:49.118Z,81.75
2022-09-24T23:32:11.882Z,80.98
2022-09-24T23:34:33.328Z,80.47
2022-09-24T23:36:54.740Z,79.84
2022-09-24T23:39:16.199Z,79.70
2022-09-24T23:41:37.756Z,79.43
2022-09-24T23:44:00.128Z,79.37
2022-09-24T23:46:21.723Z,78.93
2022-09-24T23:48:43.265Z,80.52
2022-09-24T23:51:05.804Z,79.75
2022-09-24T23:53:27.711Z,80.33
2022-09-24T23:55:49.715Z,80.15
2022-09-24T23:58:11.133Z,82.16
